Lakeway's Hourly Summary for Tuesday, March 14, 2017
Hour Temp
(f)
RH
(%)
Solar Rad.
(MJ/m2)
Rainfall
(in)
Wind
(mph)
3/14/2017 12:00 AM 51 95 0 0 0
3/14/2017 1:00 AM 49 92 0 0 0
3/14/2017 2:00 AM 49 72 0 0 0.2
3/14/2017 3:00 AM 46 73 0 0 0.04
3/14/2017 4:00 AM 44 64 0 0 0.12
3/14/2017 5:00 AM 42 66 0 0 0.04
3/14/2017 6:00 AM 42 67 0 0 0.07
3/14/2017 7:00 AM 40 68 0 0 0.01
3/14/2017 8:00 AM 38 70 0.01 0 0
3/14/2017 9:00 AM 40 59 0.08 0 0
3/14/2017 10:00 AM 46 48 0.9 0 0.47
3/14/2017 11:00 AM 50 44 1.88 0 1.19
3/14/2017 12:00 PM 55 41 2.52 0 1.06
3/14/2017 1:00 PM 61 36 2.94 0 1.34
3/14/2017 2:00 PM 66 34 2.71 0 1.81
3/14/2017 3:00 PM 69 33 2.21 0 2.01
3/14/2017 4:00 PM 71 31 2.29 0 1.92
3/14/2017 5:00 PM 72 32 2.22 0 2.49
3/14/2017 6:00 PM 71 33 1.54 0 2.56
3/14/2017 7:00 PM 70 35 0.77 0 2.08
3/14/2017 8:00 PM 66 37 0.08 0 2.55
3/14/2017 9:00 PM 62 43 0 0 2.61
3/14/2017 10:00 PM 59 49 0 0 1.77
3/14/2017 11:00 PM 57 54 0 0 1.73
Data Summary 54 53 20.15 0.00 1.09